PWSweather.com
Personal Weather Stations
Station Observations
IBAVARIA50
Munich, PlieningDE 85652

MunichPlieningDE 85652

Lat: 48.19916153, Lon: 11.79794312

Elevation: 504

Station Type: Davis Vantage Pro2

http://wetterstation-pliening.info

High Low Average
Temperature 85.2°F29.6°C 54.0°F12.2°C 68.0°F20.0°C
Dew Point 59.6°F15.3°C 50.0°F10.0°C 55.3°F12.9°C
Winds 24.0 mph 38.6 kmh Calm Calm 6.0 mph SW9.7 kmh SW
Wind Gusts 30.0 mph48.3 kmh -- 11.0 mph17.7 kmh
Humidity 89% 34% 67%
Pressure 30.10 in1019.3 mb 29.79 in1008.8 mb -
Precipitation 0.04 in1.0 mm - -
Hour Temp Dew Point Humidity Winds Wind Gusts Pressure Precip Precip Rate Daily Precip Total
12:00 AM 61.2°F16.2°C 56.9°F13.8°C 86% Calm Calm 2.0 mph3.2 kmh 29.94 in1013.9 mb 0.00 in0.0 mm 0.00 in0.0 mm 0.00 in0.0 mm
12:05 AM 61.1°F16.2°C 56.8°F13.8°C 86% 1.0 mph SE1.6 kmh SE 2.0 mph3.2 kmh 29.94 in1013.9 mb 0.00 in0.0 mm 0.00 in0.0 mm 0.00 in0.0 mm
12:10 AM 60.9°F16.1°C 56.6°F13.7°C 86% 2.0 mph SSE3.2 kmh SSE 3.0 mph4.8 kmh 29.94 in1013.9 mb 0.00 in0.0 mm 0.00 in0.0 mm 0.00 in0.0 mm
12:15 AM 60.8°F16.0°C 56.5°F13.6°C 86% 1.0 mph SSE1.6 kmh SSE 3.0 mph4.8 kmh 29.94 in1013.9 mb 0.00 in0.0 mm 0.00 in0.0 mm 0.00 in0.0 mm
12:20 AM 60.7°F15.9°C 56.8°F13.8°C 87% 2.0 mph SSE3.2 kmh SSE 4.0 mph6.4 kmh 29.94 in1013.9 mb 0.00 in0.0 mm 0.00 in0.0 mm 0.00 in0.0 mm
12:25 AM 60.7°F15.9°C 56.8°F13.8°C 87% 1.0 mph SSE1.6 kmh SSE 4.0 mph6.4 kmh 29.93 in1013.5 mb 0.00 in0.0 mm 0.00 in0.0 mm 0.00 in0.0 mm
12:30 AM 60.6°F15.9°C 56.7°F13.7°C 87% 1.0 mph SSE1.6 kmh SSE 3.0 mph4.8 kmh 29.93 in1013.5 mb 0.00 in0.0 mm 0.00 in0.0 mm 0.00 in0.0 mm
12:35 AM 60.5°F15.8°C 56.6°F13.7°C 87% 2.0 mph S3.2 kmh S 4.0 mph6.4 kmh 29.93 in1013.5 mb 0.00 in0.0 mm 0.00 in0.0 mm 0.00 in0.0 mm
12:40 AM 60.4°F15.8°C 56.5°F13.6°C 87% 3.0 mph S4.8 kmh S 4.0 mph6.4 kmh 29.93 in1013.5 mb 0.00 in0.0 mm 0.00 in0.0 mm 0.00 in0.0 mm
12:45 AM 60.3°F15.7°C 56.4°F13.6°C 87% 3.0 mph SSE4.8 kmh SSE 4.0 mph6.4 kmh 29.93 in1013.5 mb 0.00 in0.0 mm 0.00 in0.0 mm 0.00 in0.0 mm
12:50 AM 60.2°F15.7°C 56.3°F13.5°C 87% 3.0 mph SSE4.8 kmh SSE 5.0 mph8.0 kmh 29.93 in1013.5 mb 0.00 in0.0 mm 0.00 in0.0 mm 0.00 in0.0 mm
12:55 AM 60.2°F15.7°C 56.3°F13.5°C 87% 1.0 mph ESE1.6 kmh ESE 4.0 mph6.4 kmh 29.93 in1013.5 mb 0.00 in0.0 mm 0.00 in0.0 mm 0.00 in0.0 mm
01:00 AM 60.2°F15.7°C 56.3°F13.5°C 87% Calm Calm 2.0 mph3.2 kmh 29.92 in1013.2 mb 0.00 in0.0 mm 0.00 in0.0 mm 0.00 in0.0 mm
01:05 AM 60.2°F15.7°C 56.3°F13.5°C 87% 1.0 mph SE1.6 kmh SE 3.0 mph4.8 kmh 29.92 in1013.2 mb 0.00 in0.0 mm 0.00 in0.0 mm 0.00 in0.0 mm
01:10 AM 60.1°F15.6°C 56.2°F13.4°C 87% 3.0 mph SSE4.8 kmh SSE 4.0 mph6.4 kmh 29.92 in1013.2 mb 0.00 in0.0 mm 0.00 in0.0 mm 0.00 in0.0 mm
01:15 AM 60.1°F15.6°C 56.2°F13.4°C 87% 1.0 mph SSE1.6 kmh SSE 3.0 mph4.8 kmh 29.92 in1013.2 mb 0.00 in0.0 mm 0.00 in0.0 mm 0.00 in0.0 mm
01:20 AM 60.1°F15.6°C 56.2°F13.4°C 87% 2.0 mph S3.2 kmh S 4.0 mph6.4 kmh 29.92 in1013.2 mb 0.00 in0.0 mm 0.00 in0.0 mm 0.00 in0.0 mm
01:25 AM 60.0°F15.6°C 56.1°F13.4°C 87% 2.0 mph SSE3.2 kmh SSE 4.0 mph6.4 kmh 29.92 in1013.2 mb 0.00 in0.0 mm 0.00 in0.0 mm 0.00 in0.0 mm
01:30 AM 60.0°F15.6°C 56.1°F13.4°C 87% 3.0 mph SSE4.8 kmh SSE 4.0 mph6.4 kmh 29.92 in1013.2 mb 0.00 in0.0 mm 0.00 in0.0 mm 0.00 in0.0 mm
01:35 AM 60.0°F15.6°C 56.1°F13.4°C 87% 1.0 mph SSE1.6 kmh SSE 3.0 mph4.8 kmh 29.92 in1013.2 mb 0.00 in0.0 mm 0.00 in0.0 mm 0.00 in0.0 mm
01:40 AM 60.0°F15.6°C 56.1°F13.4°C 87% 1.0 mph SSE1.6 kmh SSE 2.0 mph3.2 kmh 29.91 in1012.9 mb 0.00 in0.0 mm 0.00 in0.0 mm 0.00 in0.0 mm
01:45 AM 60.0°F15.6°C 56.1°F13.4°C 87% Calm Calm 2.0 mph3.2 kmh 29.91 in1012.9 mb 0.00 in0.0 mm 0.00 in0.0 mm 0.00 in0.0 mm
01:50 AM 59.9°F15.5°C 56.0°F13.3°C 87% 1.0 mph SE1.6 kmh SE 3.0 mph4.8 kmh 29.91 in1012.9 mb 0.00 in0.0 mm 0.00 in0.0 mm 0.00 in0.0 mm
01:55 AM 59.9°F15.5°C 56.0°F13.3°C 87% 1.0 mph SSE1.6 kmh SSE 3.0 mph4.8 kmh 29.91 in1012.9 mb 0.00 in0.0 mm 0.00 in0.0 mm 0.00 in0.0 mm
02:00 AM 59.9°F15.5°C 56.0°F13.3°C 87% 3.0 mph S4.8 kmh S 3.0 mph4.8 kmh 29.91 in1012.9 mb 0.00 in0.0 mm 0.00 in0.0 mm 0.00 in0.0 mm
02:05 AM 59.7°F15.4°C 55.8°F13.2°C 87% 1.0 mph S1.6 kmh S 4.0 mph6.4 kmh 29.90 in1012.5 mb 0.00 in0.0 mm 0.00 in0.0 mm 0.00 in0.0 mm
02:10 AM 59.5°F15.3°C 55.6°F13.1°C 87% 1.0 mph SSE1.6 kmh SSE 4.0 mph6.4 kmh 29.90 in1012.5 mb 0.00 in0.0 mm 0.00 in0.0 mm 0.00 in0.0 mm
02:15 AM 59.4°F15.2°C 55.5°F13.1°C 87% 1.0 mph SE1.6 kmh SE 3.0 mph4.8 kmh 29.90 in1012.5 mb 0.00 in0.0 mm 0.00 in0.0 mm 0.00 in0.0 mm
02:20 AM 59.3°F15.2°C 55.4°F13.0°C 87% 1.0 mph SE1.6 kmh SE 2.0 mph3.2 kmh 29.91 in1012.9 mb 0.00 in0.0 mm 0.00 in0.0 mm 0.00 in0.0 mm
02:25 AM 59.2°F15.1°C 55.3°F12.9°C 87% 1.0 mph SE1.6 kmh SE 3.0 mph4.8 kmh 29.90 in1012.5 mb 0.00 in0.0 mm 0.00 in0.0 mm 0.00 in0.0 mm
02:30 AM 59.1°F15.1°C 55.2°F12.9°C 87% 1.0 mph S1.6 kmh S 3.0 mph4.8 kmh 29.91 in1012.9 mb 0.00 in0.0 mm 0.00 in0.0 mm 0.00 in0.0 mm
02:35 AM 59.0°F15.0°C 55.1°F12.8°C 87% 3.0 mph SE4.8 kmh SE 4.0 mph6.4 kmh 29.90 in1012.5 mb 0.00 in0.0 mm 0.00 in0.0 mm 0.00 in0.0 mm
02:40 AM 59.0°F15.0°C 55.1°F12.8°C 87% 2.0 mph SSE3.2 kmh SSE 2.0 mph3.2 kmh 29.90 in1012.5 mb 0.00 in0.0 mm 0.00 in0.0 mm 0.00 in0.0 mm
02:45 AM 59.1°F15.1°C 55.2°F12.9°C 87% 1.0 mph S1.6 kmh S 3.0 mph4.8 kmh 29.90 in1012.5 mb 0.00 in0.0 mm 0.00 in0.0 mm 0.00 in0.0 mm
02:50 AM 59.0°F15.0°C 55.1°F12.8°C 87% 1.0 mph SSE1.6 kmh SSE 3.0 mph4.8 kmh 29.90 in1012.5 mb 0.00 in0.0 mm 0.00 in0.0 mm 0.00 in0.0 mm
02:55 AM 58.8°F14.9°C 54.9°F12.7°C 87% 3.0 mph SE4.8 kmh SE 4.0 mph6.4 kmh 29.90 in1012.5 mb 0.00 in0.0 mm 0.00 in0.0 mm 0.00 in0.0 mm
03:00 AM 58.7°F14.8°C 54.8°F12.7°C 87% 1.0 mph SSE1.6 kmh SSE 3.0 mph4.8 kmh 29.90 in1012.5 mb 0.00 in0.0 mm 0.00 in0.0 mm 0.00 in0.0 mm
03:05 AM 58.7°F14.8°C 54.5°F12.5°C 86% 2.0 mph SSE3.2 kmh SSE 3.0 mph4.8 kmh 29.90 in1012.5 mb 0.00 in0.0 mm 0.00 in0.0 mm 0.00 in0.0 mm
03:10 AM 58.7°F14.8°C 54.5°F12.5°C 86% 1.0 mph SSE1.6 kmh SSE 3.0 mph4.8 kmh 29.90 in1012.5 mb 0.00 in0.0 mm 0.00 in0.0 mm 0.00 in0.0 mm
03:15 AM 58.7°F14.8°C 54.5°F12.5°C 86% Calm Calm 2.0 mph3.2 kmh 29.90 in1012.5 mb 0.00 in0.0 mm 0.00 in0.0 mm 0.00 in0.0 mm
03:20 AM 58.7°F14.8°C 54.5°F12.5°C 86% Calm Calm 1.0 mph1.6 kmh 29.90 in1012.5 mb 0.00 in0.0 mm 0.00 in0.0 mm 0.00 in0.0 mm
03:25 AM 58.7°F14.8°C 54.5°F12.5°C 86% 1.0 mph SSE1.6 kmh SSE 2.0 mph3.2 kmh 29.90 in1012.5 mb 0.00 in0.0 mm 0.00 in0.0 mm 0.00 in0.0 mm
03:30 AM 58.7°F14.8°C 54.5°F12.5°C 86% Calm Calm 2.0 mph3.2 kmh 29.90 in1012.5 mb 0.00 in0.0 mm 0.00 in0.0 mm 0.00 in0.0 mm
03:35 AM 58.6°F14.8°C 54.4°F12.4°C 86% Calm Calm -- 29.90 in1012.5 mb 0.00 in0.0 mm 0.00 in0.0 mm 0.00 in0.0 mm
03:40 AM 58.5°F14.7°C 54.3°F12.4°C 86% Calm Calm -- 29.89 in1012.2 mb 0.00 in0.0 mm 0.00 in0.0 mm 0.00 in0.0 mm
03:45 AM 58.5°F14.7°C 54.3°F12.4°C 86% Calm Calm -- 29.90 in1012.5 mb 0.00 in0.0 mm 0.00 in0.0 mm 0.00 in0.0 mm
03:50 AM 58.4°F14.7°C 54.2°F12.3°C 86% Calm Calm -- 29.90 in1012.5 mb 0.00 in0.0 mm 0.00 in0.0 mm 0.00 in0.0 mm
03:55 AM 58.1°F14.5°C 53.9°F12.2°C 86% Calm Calm -- 29.90 in1012.5 mb 0.00 in0.0 mm 0.00 in0.0 mm 0.00 in0.0 mm
04:00 AM 57.9°F14.4°C 54.0°F12.2°C 87% Calm Calm -- 29.90 in1012.5 mb 0.00 in0.0 mm 0.00 in0.0 mm 0.00 in0.0 mm
04:05 AM 57.8°F14.3°C 53.9°F12.2°C 87% Calm Calm -- 29.90 in1012.5 mb 0.00 in0.0 mm 0.00 in0.0 mm 0.00 in0.0 mm
04:10 AM 57.7°F14.3°C 53.8°F12.1°C 87% Calm Calm -- 29.90 in1012.5 mb 0.00 in0.0 mm 0.00 in0.0 mm 0.00 in0.0 mm
04:15 AM 57.6°F14.2°C 53.7°F12.1°C 87% Calm Calm -- 29.90 in1012.5 mb 0.00 in0.0 mm 0.00 in0.0 mm 0.00 in0.0 mm
04:20 AM 57.5°F14.2°C 53.6°F12.0°C 87% Calm Calm -- 29.90 in1012.5 mb 0.00 in0.0 mm 0.00 in0.0 mm 0.00 in0.0 mm
04:25 AM 57.5°F14.2°C 53.6°F12.0°C 87% Calm Calm -- 29.90 in1012.5 mb 0.00 in0.0 mm 0.00 in0.0 mm 0.00 in0.0 mm
04:30 AM 57.4°F14.1°C 53.5°F11.9°C 87% Calm Calm -- 29.90 in1012.5 mb 0.00 in0.0 mm 0.00 in0.0 mm 0.00 in0.0 mm
04:35 AM 57.2°F14.0°C 53.3°F11.8°C 87% Calm Calm -- 29.90 in1012.5 mb 0.00 in0.0 mm 0.00 in0.0 mm 0.00 in0.0 mm
04:40 AM 57.2°F14.0°C 53.3°F11.8°C 87% Calm Calm -- 29.90 in1012.5 mb 0.00 in0.0 mm 0.00 in0.0 mm 0.00 in0.0 mm
04:45 AM 57.1°F13.9°C 53.2°F11.8°C 87% Calm Calm -- 29.90 in1012.5 mb 0.00 in0.0 mm 0.00 in0.0 mm 0.00 in0.0 mm
04:50 AM 57.1°F13.9°C 53.5°F11.9°C 88% 4.0 mph SSE6.4 kmh SSE 4.0 mph6.4 kmh 29.90 in1012.5 mb 0.00 in0.0 mm 0.00 in0.0 mm 0.00 in0.0 mm
04:55 AM 57.0°F13.9°C 53.1°F11.7°C 87% 4.0 mph SSW6.4 kmh SSW 5.0 mph8.0 kmh 29.90 in1012.5 mb 0.00 in0.0 mm 0.00 in0.0 mm 0.00 in0.0 mm
05:00 AM 56.9°F13.8°C 53.0°F11.7°C 87% 2.0 mph S3.2 kmh S 4.0 mph6.4 kmh 29.90 in1012.5 mb 0.00 in0.0 mm 0.00 in0.0 mm 0.00 in0.0 mm
05:05 AM 56.8°F13.8°C 52.9°F11.6°C 87% 4.0 mph S6.4 kmh S 4.0 mph6.4 kmh 29.90 in1012.5 mb 0.00 in0.0 mm 0.00 in0.0 mm 0.00 in0.0 mm
05:10 AM 56.7°F13.7°C 53.1°F11.7°C 88% 4.0 mph SSW6.4 kmh SSW 4.0 mph6.4 kmh 29.90 in1012.5 mb 0.00 in0.0 mm 0.00 in0.0 mm 0.00 in0.0 mm
05:15 AM 56.7°F13.7°C 53.1°F11.7°C 88% 1.0 mph S1.6 kmh S 4.0 mph6.4 kmh 29.90 in1012.5 mb 0.00 in0.0 mm 0.00 in0.0 mm 0.00 in0.0 mm
05:20 AM 56.8°F13.8°C 53.2°F11.8°C 88% 2.0 mph S3.2 kmh S 3.0 mph4.8 kmh 29.90 in1012.5 mb 0.00 in0.0 mm 0.00 in0.0 mm 0.00 in0.0 mm
05:25 AM 56.9°F13.8°C 53.3°F11.8°C 88% 3.0 mph SSE4.8 kmh SSE 4.0 mph6.4 kmh 29.90 in1012.5 mb 0.00 in0.0 mm 0.00 in0.0 mm 0.00 in0.0 mm
05:30 AM 57.0°F13.9°C 53.1°F11.7°C 87% 3.0 mph SE4.8 kmh SE 4.0 mph6.4 kmh 29.90 in1012.5 mb 0.00 in0.0 mm 0.00 in0.0 mm 0.00 in0.0 mm
05:35 AM 57.1°F13.9°C 53.2°F11.8°C 87% 3.0 mph SE4.8 kmh SE 4.0 mph6.4 kmh 29.89 in1012.2 mb 0.00 in0.0 mm 0.00 in0.0 mm 0.00 in0.0 mm
05:40 AM 57.0°F13.9°C 53.1°F11.7°C 87% 3.0 mph SSE4.8 kmh SSE 4.0 mph6.4 kmh 29.89 in1012.2 mb 0.00 in0.0 mm 0.00 in0.0 mm 0.00 in0.0 mm
05:45 AM 56.9°F13.8°C 53.0°F11.7°C 87% 2.0 mph SSE3.2 kmh SSE 4.0 mph6.4 kmh 29.89 in1012.2 mb 0.00 in0.0 mm 0.00 in0.0 mm 0.00 in0.0 mm
05:50 AM 56.9°F13.8°C 53.0°F11.7°C 87% 2.0 mph SSE3.2 kmh SSE 4.0 mph6.4 kmh 29.89 in1012.2 mb 0.00 in0.0 mm 0.00 in0.0 mm 0.00 in0.0 mm
05:55 AM 57.0°F13.9°C 53.1°F11.7°C 87% 4.0 mph SSE6.4 kmh SSE 4.0 mph6.4 kmh 29.89 in1012.2 mb 0.00 in0.0 mm 0.00 in0.0 mm 0.00 in0.0 mm
06:00 AM 57.0°F13.9°C 53.1°F11.7°C 87% 3.0 mph SE4.8 kmh SE 5.0 mph8.0 kmh 29.89 in1012.2 mb 0.00 in0.0 mm 0.00 in0.0 mm 0.00 in0.0 mm
06:05 AM 57.0°F13.9°C 53.1°F11.7°C 87% 2.0 mph SSE3.2 kmh SSE 4.0 mph6.4 kmh 29.90 in1012.5 mb 0.00 in0.0 mm 0.00 in0.0 mm 0.00 in0.0 mm
06:10 AM 57.0°F13.9°C 53.1°F11.7°C 87% 2.0 mph SE3.2 kmh SE 5.0 mph8.0 kmh 29.90 in1012.5 mb 0.00 in0.0 mm 0.00 in0.0 mm 0.00 in0.0 mm
06:15 AM 57.0°F13.9°C 53.1°F11.7°C 87% 1.0 mph SSE1.6 kmh SSE 5.0 mph8.0 kmh 29.90 in1012.5 mb 0.00 in0.0 mm 0.00 in0.0 mm 0.00 in0.0 mm
06:20 AM 57.1°F13.9°C 52.9°F11.6°C 86% 2.0 mph S3.2 kmh S 5.0 mph8.0 kmh 29.90 in1012.5 mb 0.00 in0.0 mm 0.00 in0.0 mm 0.00 in0.0 mm
06:25 AM 57.3°F14.1°C 53.1°F11.7°C 86% 3.0 mph SSW4.8 kmh SSW 5.0 mph8.0 kmh 29.90 in1012.5 mb 0.00 in0.0 mm 0.00 in0.0 mm 0.00 in0.0 mm
06:30 AM 57.6°F14.2°C 53.1°F11.7°C 85% 5.0 mph SSE8.0 kmh SSE 6.0 mph9.7 kmh 29.90 in1012.5 mb 0.00 in0.0 mm 0.00 in0.0 mm 0.00 in0.0 mm
06:35 AM 57.8°F14.3°C 53.3°F11.8°C 85% 3.0 mph SSE4.8 kmh SSE 6.0 mph9.7 kmh 29.90 in1012.5 mb 0.00 in0.0 mm 0.00 in0.0 mm 0.00 in0.0 mm
06:40 AM 58.0°F14.4°C 53.5°F11.9°C 85% 3.0 mph S4.8 kmh S 6.0 mph9.7 kmh 29.90 in1012.5 mb 0.00 in0.0 mm 0.00 in0.0 mm 0.00 in0.0 mm
06:45 AM 58.3°F14.6°C 53.4°F11.9°C 84% 2.0 mph S3.2 kmh S 7.0 mph11.3 kmh 29.90 in1012.5 mb 0.00 in0.0 mm 0.00 in0.0 mm 0.00 in0.0 mm
06:50 AM 58.6°F14.8°C 53.4°F11.9°C 83% 5.0 mph S8.0 kmh S 6.0 mph9.7 kmh 29.90 in1012.5 mb 0.00 in0.0 mm 0.00 in0.0 mm 0.00 in0.0 mm
06:55 AM 58.8°F14.9°C 53.6°F12.0°C 83% 3.0 mph S4.8 kmh S 7.0 mph11.3 kmh 29.90 in1012.5 mb 0.00 in0.0 mm 0.00 in0.0 mm 0.00 in0.0 mm
07:00 AM 59.1°F15.1°C 53.9°F12.2°C 83% 5.0 mph S8.0 kmh S 6.0 mph9.7 kmh 29.90 in1012.5 mb 0.00 in0.0 mm 0.00 in0.0 mm 0.00 in0.0 mm
07:05 AM 59.3°F15.2°C 53.8°F12.1°C 82% 4.0 mph S6.4 kmh S 6.0 mph9.7 kmh 29.90 in1012.5 mb 0.00 in0.0 mm 0.00 in0.0 mm 0.00 in0.0 mm
07:10 AM 59.6°F15.3°C 54.0°F12.2°C 82% 3.0 mph S4.8 kmh S 7.0 mph11.3 kmh 29.90 in1012.5 mb 0.00 in0.0 mm 0.00 in0.0 mm 0.00 in0.0 mm
07:15 AM 59.8°F15.4°C 54.2°F12.3°C 82% 4.0 mph S6.4 kmh S 7.0 mph11.3 kmh 29.90 in1012.5 mb 0.00 in0.0 mm 0.00 in0.0 mm 0.00 in0.0 mm
07:20 AM 60.1°F15.6°C 54.5°F12.5°C 82% 3.0 mph S4.8 kmh S 5.0 mph8.0 kmh 29.90 in1012.5 mb 0.00 in0.0 mm 0.00 in0.0 mm 0.00 in0.0 mm
07:25 AM 60.4°F15.8°C 54.5°F12.5°C 81% 2.0 mph SSE3.2 kmh SSE 6.0 mph9.7 kmh 29.90 in1012.5 mb 0.00 in0.0 mm 0.00 in0.0 mm 0.00 in0.0 mm
07:30 AM 60.9°F16.1°C 55.0°F12.8°C 81% 2.0 mph SSE3.2 kmh SSE 4.0 mph6.4 kmh 29.90 in1012.5 mb 0.00 in0.0 mm 0.00 in0.0 mm 0.00 in0.0 mm
07:35 AM 61.2°F16.2°C 54.9°F12.7°C 80% 3.0 mph S4.8 kmh S 9.0 mph14.5 kmh 29.90 in1012.5 mb 0.00 in0.0 mm 0.00 in0.0 mm 0.00 in0.0 mm
07:40 AM 61.6°F16.4°C 55.0°F12.8°C 79% 2.0 mph SSW3.2 kmh SSW 7.0 mph11.3 kmh 29.90 in1012.5 mb 0.00 in0.0 mm 0.00 in0.0 mm 0.00 in0.0 mm
07:45 AM 62.0°F16.7°C 55.4°F13.0°C 79% 4.0 mph SSW6.4 kmh SSW 6.0 mph9.7 kmh 29.90 in1012.5 mb 0.00 in0.0 mm 0.00 in0.0 mm 0.00 in0.0 mm
07:50 AM 62.4°F16.9°C 55.4°F13.0°C 78% 4.0 mph S6.4 kmh S 7.0 mph11.3 kmh 29.90 in1012.5 mb 0.00 in0.0 mm 0.00 in0.0 mm 0.00 in0.0 mm
07:55 AM 62.9°F17.2°C 55.9°F13.3°C 78% 2.0 mph S3.2 kmh S 6.0 mph9.7 kmh 29.89 in1012.2 mb 0.00 in0.0 mm 0.00 in0.0 mm 0.00 in0.0 mm
08:00 AM 63.3°F17.4°C 55.9°F13.3°C 77% 2.0 mph SSW3.2 kmh SSW 7.0 mph11.3 kmh 29.89 in1012.2 mb 0.00 in0.0 mm 0.00 in0.0 mm 0.00 in0.0 mm
08:05 AM 63.7°F17.6°C 55.9°F13.3°C 76% 2.0 mph SSW3.2 kmh SSW 7.0 mph11.3 kmh 29.90 in1012.5 mb 0.00 in0.0 mm 0.00 in0.0 mm 0.00 in0.0 mm
08:10 AM 64.1°F17.8°C 56.3°F13.5°C 76% 4.0 mph S6.4 kmh S 6.0 mph9.7 kmh 29.89 in1012.2 mb 0.00 in0.0 mm 0.00 in0.0 mm 0.00 in0.0 mm
08:15 AM 64.6°F18.1°C 56.4°F13.6°C 75% 5.0 mph S8.0 kmh S 9.0 mph14.5 kmh 29.89 in1012.2 mb 0.00 in0.0 mm 0.00 in0.0 mm 0.00 in0.0 mm
08:20 AM 65.0°F18.3°C 56.5°F13.6°C 74% 7.0 mph S11.3 kmh S 9.0 mph14.5 kmh 29.89 in1012.2 mb 0.00 in0.0 mm 0.00 in0.0 mm 0.00 in0.0 mm
08:25 AM 65.5°F18.6°C 56.6°F13.7°C 73% 3.0 mph SSW4.8 kmh SSW 9.0 mph14.5 kmh 29.89 in1012.2 mb 0.00 in0.0 mm 0.00 in0.0 mm 0.00 in0.0 mm
08:30 AM 66.0°F18.9°C 57.0°F13.9°C 73% 2.0 mph SSW3.2 kmh SSW 6.0 mph9.7 kmh 29.89 in1012.2 mb 0.00 in0.0 mm 0.00 in0.0 mm 0.00 in0.0 mm
08:35 AM 66.5°F19.2°C 57.1°F13.9°C 72% 4.0 mph SSW6.4 kmh SSW 7.0 mph11.3 kmh 29.89 in1012.2 mb 0.00 in0.0 mm 0.00 in0.0 mm 0.00 in0.0 mm
08:40 AM 67.0°F19.4°C 57.2°F14.0°C 71% 4.0 mph SW6.4 kmh SW 7.0 mph11.3 kmh 29.89 in1012.2 mb 0.00 in0.0 mm 0.00 in0.0 mm 0.00 in0.0 mm
08:45 AM 67.7°F19.8°C 57.5°F14.2°C 70% 5.0 mph SSW8.0 kmh SSW 11.0 mph17.7 kmh 29.89 in1012.2 mb 0.00 in0.0 mm 0.00 in0.0 mm 0.00 in0.0 mm
08:50 AM 68.3°F20.2°C 57.7°F14.3°C 69% 1.0 mph SW1.6 kmh SW 6.0 mph9.7 kmh 29.89 in1012.2 mb 0.00 in0.0 mm 0.00 in0.0 mm 0.00 in0.0 mm
08:55 AM 68.8°F20.4°C 58.2°F14.6°C 69% 5.0 mph SSW8.0 kmh SSW 9.0 mph14.5 kmh 29.88 in1011.9 mb 0.00 in0.0 mm 0.00 in0.0 mm 0.00 in0.0 mm
09:00 AM 69.5°F20.8°C 57.6°F14.2°C 66% 6.0 mph SSW9.7 kmh SSW 11.0 mph17.7 kmh 29.88 in1011.9 mb 0.00 in0.0 mm 0.00 in0.0 mm 0.00 in0.0 mm
09:05 AM 69.9°F21.1°C 58.0°F14.4°C 66% 4.0 mph SSW6.4 kmh SSW 9.0 mph14.5 kmh 29.89 in1012.2 mb 0.00 in0.0 mm 0.00 in0.0 mm 0.00 in0.0 mm
09:10 AM 70.5°F21.4°C 58.1°F14.5°C 65% 4.0 mph SW6.4 kmh SW 9.0 mph14.5 kmh 29.89 in1012.2 mb 0.00 in0.0 mm 0.00 in0.0 mm 0.00 in0.0 mm
09:15 AM 71.0°F21.7°C 59.0°F15.0°C 66% 5.0 mph S8.0 kmh S 9.0 mph14.5 kmh 29.89 in1012.2 mb 0.00 in0.0 mm 0.00 in0.0 mm 0.00 in0.0 mm
09:20 AM 71.5°F21.9°C 58.2°F14.6°C 63% 6.0 mph SSW9.7 kmh SSW 10.0 mph16.1 kmh 29.89 in1012.2 mb 0.00 in0.0 mm 0.00 in0.0 mm 0.00 in0.0 mm
09:25 AM 71.9°F22.2°C 58.6°F14.8°C 63% 4.0 mph SSW6.4 kmh SSW 7.0 mph11.3 kmh 29.89 in1012.2 mb 0.00 in0.0 mm 0.00 in0.0 mm 0.00 in0.0 mm
09:30 AM 72.5°F22.5°C 59.1°F15.1°C 63% 3.0 mph S4.8 kmh S 7.0 mph11.3 kmh 29.89 in1012.2 mb 0.00 in0.0 mm 0.00 in0.0 mm 0.00 in0.0 mm
09:35 AM 73.0°F22.8°C 59.1°F15.1°C 62% 2.0 mph SW3.2 kmh SW 6.0 mph9.7 kmh 29.88 in1011.9 mb 0.00 in0.0 mm 0.00 in0.0 mm 0.00 in0.0 mm
09:40 AM 73.6°F23.1°C 58.8°F14.9°C 60% 3.0 mph SW4.8 kmh SW 9.0 mph14.5 kmh 29.88 in1011.9 mb 0.00 in0.0 mm 0.00 in0.0 mm 0.00 in0.0 mm
09:45 AM 74.2°F23.4°C 57.9°F14.4°C 57% 3.0 mph SSW4.8 kmh SSW 9.0 mph14.5 kmh 29.88 in1011.9 mb 0.00 in0.0 mm 0.00 in0.0 mm 0.00 in0.0 mm
09:50 AM 74.7°F23.7°C 58.4°F14.7°C 57% 3.0 mph WSW4.8 kmh WSW 10.0 mph16.1 kmh 29.88 in1011.9 mb 0.00 in0.0 mm 0.00 in0.0 mm 0.00 in0.0 mm
09:55 AM 75.3°F24.1°C 57.9°F14.4°C 55% 4.0 mph SW6.4 kmh SW 8.0 mph12.9 kmh 29.88 in1011.9 mb 0.00 in0.0 mm 0.00 in0.0 mm 0.00 in0.0 mm
10:00 AM 75.6°F24.2°C 57.7°F14.3°C 54% 4.0 mph WSW6.4 kmh WSW 9.0 mph14.5 kmh 29.88 in1011.9 mb 0.00 in0.0 mm 0.00 in0.0 mm 0.00 in0.0 mm
10:05 AM 75.9°F24.4°C 58.0°F14.4°C 54% 7.0 mph SSW11.3 kmh SSW 9.0 mph14.5 kmh 29.88 in1011.9 mb 0.00 in0.0 mm 0.00 in0.0 mm 0.00 in0.0 mm
10:10 AM 76.3°F24.6°C 57.8°F14.3°C 53% 5.0 mph SW8.0 kmh SW 9.0 mph14.5 kmh 29.88 in1011.9 mb 0.00 in0.0 mm 0.00 in0.0 mm 0.00 in0.0 mm
10:15 AM 76.9°F24.9°C 58.4°F14.7°C 53% 5.0 mph WSW8.0 kmh WSW 10.0 mph16.1 kmh 29.87 in1011.5 mb 0.00 in0.0 mm 0.00 in0.0 mm 0.00 in0.0 mm
10:20 AM 77.3°F25.2°C 58.8°F14.9°C 53% 5.0 mph W8.0 kmh W 14.0 mph22.5 kmh 29.87 in1011.5 mb 0.00 in0.0 mm 0.00 in0.0 mm 0.00 in0.0 mm
10:25 AM 77.8°F25.4°C 58.7°F14.8°C 52% 4.0 mph WSW6.4 kmh WSW 11.0 mph17.7 kmh 29.87 in1011.5 mb 0.00 in0.0 mm 0.00 in0.0 mm 0.00 in0.0 mm
10:30 AM 78.2°F25.7°C 58.5°F14.7°C 51% 4.0 mph SW6.4 kmh SW 12.0 mph19.3 kmh 29.87 in1011.5 mb 0.00 in0.0 mm 0.00 in0.0 mm 0.00 in0.0 mm
10:35 AM 78.5°F25.8°C 58.2°F14.6°C 50% 3.0 mph SW4.8 kmh SW 12.0 mph19.3 kmh 29.87 in1011.5 mb 0.00 in0.0 mm 0.00 in0.0 mm 0.00 in0.0 mm
10:40 AM 78.6°F25.9°C 58.9°F14.9°C 51% 9.0 mph SSW14.5 kmh SSW 12.0 mph19.3 kmh 29.86 in1011.2 mb 0.00 in0.0 mm 0.00 in0.0 mm 0.00 in0.0 mm
10:45 AM 78.8°F26.0°C 59.6°F15.3°C 52% 10.0 mph W16.1 kmh W 14.0 mph22.5 kmh 29.86 in1011.2 mb 0.00 in0.0 mm 0.00 in0.0 mm 0.00 in0.0 mm
10:50 AM 79.3°F26.3°C 58.4°F14.7°C 49% 4.0 mph SW6.4 kmh SW 14.0 mph22.5 kmh 29.86 in1011.2 mb 0.00 in0.0 mm 0.00 in0.0 mm 0.00 in0.0 mm
10:55 AM 79.6°F26.4°C 58.1°F14.5°C 48% 8.0 mph W12.9 kmh W 11.0 mph17.7 kmh 29.86 in1011.2 mb 0.00 in0.0 mm 0.00 in0.0 mm 0.00 in0.0 mm
11:00 AM 79.6°F26.4°C 58.1°F14.5°C 48% 3.0 mph WSW4.8 kmh WSW 15.0 mph24.1 kmh 29.86 in1011.2 mb 0.00 in0.0 mm 0.00 in0.0 mm 0.00 in0.0 mm
11:05 AM 79.8°F26.6°C 58.9°F14.9°C 49% 2.0 mph W3.2 kmh W 13.0 mph20.9 kmh 29.86 in1011.2 mb 0.00 in0.0 mm 0.00 in0.0 mm 0.00 in0.0 mm
11:10 AM 79.9°F26.6°C 59.0°F15.0°C 49% 4.0 mph S6.4 kmh S 11.0 mph17.7 kmh 29.86 in1011.2 mb 0.00 in0.0 mm 0.00 in0.0 mm 0.00 in0.0 mm
11:15 AM 80.3°F26.8°C 57.6°F14.2°C 46% 7.0 mph SW11.3 kmh SW 13.0 mph20.9 kmh 29.86 in1011.2 mb 0.00 in0.0 mm 0.00 in0.0 mm 0.00 in0.0 mm
11:20 AM 80.6°F27.0°C 57.8°F14.3°C 46% 7.0 mph WSW11.3 kmh WSW 11.0 mph17.7 kmh 29.86 in1011.2 mb 0.00 in0.0 mm 0.00 in0.0 mm 0.00 in0.0 mm
11:25 AM 80.8°F27.1°C 57.4°F14.1°C 45% 5.0 mph WSW8.0 kmh WSW 15.0 mph24.1 kmh 29.85 in1010.8 mb 0.00 in0.0 mm 0.00 in0.0 mm 0.00 in0.0 mm
11:30 AM 81.2°F27.3°C 57.8°F14.3°C 45% 6.0 mph W9.7 kmh W 13.0 mph20.9 kmh 29.85 in1010.8 mb 0.00 in0.0 mm 0.00 in0.0 mm 0.00 in0.0 mm
11:35 AM 81.4°F27.4°C 57.3°F14.1°C 44% 6.0 mph SSW9.7 kmh SSW 14.0 mph22.5 kmh 29.85 in1010.8 mb 0.00 in0.0 mm 0.00 in0.0 mm 0.00 in0.0 mm
11:40 AM 81.7°F27.6°C 57.6°F14.2°C 44% 5.0 mph SW8.0 kmh SW 14.0 mph22.5 kmh 29.85 in1010.8 mb 0.00 in0.0 mm 0.00 in0.0 mm 0.00 in0.0 mm
11:45 AM 82.0°F27.8°C 57.2°F14.0°C 43% 9.0 mph WNW14.5 kmh WNW 14.0 mph22.5 kmh 29.85 in1010.8 mb 0.00 in0.0 mm 0.00 in0.0 mm 0.00 in0.0 mm
11:50 AM 82.1°F27.8°C 56.7°F13.7°C 42% 6.0 mph WSW9.7 kmh WSW 14.0 mph22.5 kmh 29.85 in1010.8 mb 0.00 in0.0 mm 0.00 in0.0 mm 0.00 in0.0 mm
11:55 AM 82.2°F27.9°C 57.4°F14.1°C 43% 10.0 mph WSW16.1 kmh WSW 13.0 mph20.9 kmh 29.85 in1010.8 mb 0.00 in0.0 mm 0.00 in0.0 mm 0.00 in0.0 mm
12:00 PM 82.8°F28.2°C 58.6°F14.8°C 44% 15.0 mph W24.1 kmh W 15.0 mph24.1 kmh 29.85 in1010.8 mb 0.00 in0.0 mm 0.00 in0.0 mm 0.00 in0.0 mm
12:05 PM 83.2°F28.4°C 57.6°F14.2°C 42% 4.0 mph SW6.4 kmh SW 18.0 mph29.0 kmh 29.85 in1010.8 mb 0.00 in0.0 mm 0.00 in0.0 mm 0.00 in0.0 mm
12:10 PM 83.6°F28.7°C 57.3°F14.1°C 41% 5.0 mph WSW8.0 kmh WSW 13.0 mph20.9 kmh 29.84 in1010.5 mb 0.00 in0.0 mm 0.00 in0.0 mm 0.00 in0.0 mm
12:15 PM 83.2°F28.4°C 58.3°F14.6°C 43% 11.0 mph W17.7 kmh W 14.0 mph22.5 kmh 29.84 in1010.5 mb 0.00 in0.0 mm 0.00 in0.0 mm 0.00 in0.0 mm
12:20 PM 83.0°F28.3°C 57.5°F14.2°C 42% 14.0 mph WSW22.5 kmh WSW 20.0 mph32.2 kmh 29.84 in1010.5 mb 0.00 in0.0 mm 0.00 in0.0 mm 0.00 in0.0 mm
12:25 PM 82.3°F27.9°C 57.5°F14.2°C 43% 8.0 mph W12.9 kmh W 15.0 mph24.1 kmh 29.84 in1010.5 mb 0.00 in0.0 mm 0.00 in0.0 mm 0.00 in0.0 mm
12:30 PM 81.6°F27.6°C 58.7°F14.8°C 46% 3.0 mph W4.8 kmh W 14.0 mph22.5 kmh 29.84 in1010.5 mb 0.00 in0.0 mm 0.00 in0.0 mm 0.00 in0.0 mm
12:35 PM 81.2°F27.3°C 57.8°F14.3°C 45% 11.0 mph WSW17.7 kmh WSW 17.0 mph27.4 kmh 29.84 in1010.5 mb 0.00 in0.0 mm 0.00 in0.0 mm 0.00 in0.0 mm
12:40 PM 81.6°F27.6°C 58.1°F14.5°C 45% 6.0 mph WSW9.7 kmh WSW 17.0 mph27.4 kmh 29.84 in1010.5 mb 0.00 in0.0 mm 0.00 in0.0 mm 0.00 in0.0 mm
12:45 PM 82.7°F28.2°C 58.5°F14.7°C 44% 11.0 mph W17.7 kmh W 14.0 mph22.5 kmh 29.83 in1010.2 mb 0.00 in0.0 mm 0.00 in0.0 mm 0.00 in0.0 mm
12:50 PM 83.1°F28.4°C 58.2°F14.6°C 43% 5.0 mph WSW8.0 kmh WSW 14.0 mph22.5 kmh 29.83 in1010.2 mb 0.00 in0.0 mm 0.00 in0.0 mm 0.00 in0.0 mm
12:55 PM 83.4°F28.6°C 58.5°F14.7°C 43% 9.0 mph WSW14.5 kmh WSW 13.0 mph20.9 kmh 29.83 in1010.2 mb 0.00 in0.0 mm 0.00 in0.0 mm 0.00 in0.0 mm
01:00 PM 83.7°F28.7°C 59.4°F15.2°C 44% 7.0 mph SW11.3 kmh SW 15.0 mph24.1 kmh 29.83 in1010.2 mb 0.00 in0.0 mm 0.00 in0.0 mm 0.00 in0.0 mm
01:05 PM 84.0°F28.9°C 58.4°F14.7°C 42% 9.0 mph W14.5 kmh W 18.0 mph29.0 kmh 29.83 in1010.2 mb 0.00 in0.0 mm 0.00 in0.0 mm 0.00 in0.0 mm
01:10 PM 83.9°F28.8°C 57.6°F14.2°C 41% 11.0 mph W17.7 kmh W 19.0 mph30.6 kmh 29.82 in1009.8 mb 0.00 in0.0 mm 0.00 in0.0 mm 0.00 in0.0 mm
01:15 PM 84.2°F29.0°C 57.9°F14.4°C 41% 10.0 mph WNW16.1 kmh WNW 19.0 mph30.6 kmh 29.82 in1009.8 mb 0.00 in0.0 mm 0.00 in0.0 mm 0.00 in0.0 mm
01:20 PM 84.2°F29.0°C 57.2°F14.0°C 40% 14.0 mph WSW22.5 kmh WSW 21.0 mph33.8 kmh 29.82 in1009.8 mb 0.00 in0.0 mm 0.00 in0.0 mm 0.00 in0.0 mm
01:25 PM 84.0°F28.9°C 57.0°F13.9°C 40% 7.0 mph SSW11.3 kmh SSW 20.0 mph32.2 kmh 29.81 in1009.5 mb 0.00 in0.0 mm 0.00 in0.0 mm 0.00 in0.0 mm
01:30 PM 84.3°F29.1°C 58.0°F14.4°C 41% 14.0 mph WSW22.5 kmh WSW 18.0 mph29.0 kmh 29.82 in1009.8 mb 0.00 in0.0 mm 0.00 in0.0 mm 0.00 in0.0 mm
01:35 PM 84.3°F29.1°C 58.0°F14.4°C 41% 15.0 mph SSW24.1 kmh SSW 18.0 mph29.0 kmh 29.82 in1009.8 mb 0.00 in0.0 mm 0.00 in0.0 mm 0.00 in0.0 mm
01:40 PM 84.5°F29.2°C 56.7°F13.7°C 39% 9.0 mph SW14.5 kmh SW 16.0 mph25.7 kmh 29.81 in1009.5 mb 0.00 in0.0 mm 0.00 in0.0 mm 0.00 in0.0 mm
01:45 PM 84.5°F29.2°C 58.1°F14.5°C 41% 5.0 mph WSW8.0 kmh WSW 25.0 mph40.2 kmh 29.81 in1009.5 mb 0.00 in0.0 mm 0.00 in0.0 mm 0.00 in0.0 mm
01:50 PM 84.7°F29.3°C 56.2°F13.4°C 38% 7.0 mph SW11.3 kmh SW 17.0 mph27.4 kmh 29.81 in1009.5 mb 0.00 in0.0 mm 0.00 in0.0 mm 0.00 in0.0 mm
01:55 PM 84.5°F29.2°C 56.0°F13.3°C 38% 7.0 mph WSW11.3 kmh WSW 20.0 mph32.2 kmh 29.81 in1009.5 mb 0.00 in0.0 mm 0.00 in0.0 mm 0.00 in0.0 mm
02:00 PM 84.5°F29.2°C 56.0°F13.3°C 38% 24.0 mph WSW38.6 kmh WSW 25.0 mph40.2 kmh 29.81 in1009.5 mb 0.00 in0.0 mm 0.00 in0.0 mm 0.00 in0.0 mm
02:05 PM 84.5°F29.2°C 56.0°F13.3°C 38% 11.0 mph WNW17.7 kmh WNW 24.0 mph38.6 kmh 29.81 in1009.5 mb 0.00 in0.0 mm 0.00 in0.0 mm 0.00 in0.0 mm
02:10 PM 83.8°F28.8°C 55.4°F13.0°C 38% 12.0 mph SW19.3 kmh SW 20.0 mph32.2 kmh 29.81 in1009.5 mb 0.00 in0.0 mm 0.00 in0.0 mm 0.00 in0.0 mm
02:15 PM 82.8°F28.2°C 55.9°F13.3°C 40% 8.0 mph W12.9 kmh W 20.0 mph32.2 kmh 29.81 in1009.5 mb 0.00 in0.0 mm 0.00 in0.0 mm 0.00 in0.0 mm
02:20 PM 82.9°F28.3°C 54.6°F12.6°C 38% 16.0 mph WNW25.7 kmh WNW 19.0 mph30.6 kmh 29.81 in1009.5 mb 0.00 in0.0 mm 0.00 in0.0 mm 0.00 in0.0 mm
02:25 PM 83.7°F28.7°C 54.6°F12.6°C 37% 12.0 mph WSW19.3 kmh WSW 22.0 mph35.4 kmh 29.81 in1009.5 mb 0.00 in0.0 mm 0.00 in0.0 mm 0.00 in0.0 mm
02:30 PM 84.1°F28.9°C 55.7°F13.2°C 38% 2.0 mph SSW3.2 kmh SSW 17.0 mph27.4 kmh 29.80 in1009.1 mb 0.00 in0.0 mm 0.00 in0.0 mm 0.00 in0.0 mm
02:35 PM 84.5°F29.2°C 55.3°F12.9°C 37% 11.0 mph SW17.7 kmh SW 18.0 mph29.0 kmh 29.80 in1009.1 mb 0.00 in0.0 mm 0.00 in0.0 mm 0.00 in0.0 mm
02:40 PM 84.8°F29.3°C 55.5°F13.1°C 37% 5.0 mph SW8.0 kmh SW 18.0 mph29.0 kmh 29.80 in1009.1 mb 0.00 in0.0 mm 0.00 in0.0 mm 0.00 in0.0 mm
02:45 PM 85.2°F29.6°C 55.1°F12.8°C 36% 6.0 mph WSW9.7 kmh WSW 15.0 mph24.1 kmh 29.80 in1009.1 mb 0.00 in0.0 mm 0.00 in0.0 mm 0.00 in0.0 mm
02:50 PM 85.1°F29.5°C 53.5°F11.9°C 34% 12.0 mph WSW19.3 kmh WSW 16.0 mph25.7 kmh 29.80 in1009.1 mb 0.00 in0.0 mm 0.00 in0.0 mm 0.00 in0.0 mm
02:55 PM 84.4°F29.1°C 53.7°F12.1°C 35% 9.0 mph W14.5 kmh W 20.0 mph32.2 kmh 29.79 in1008.8 mb 0.00 in0.0 mm 0.00 in0.0 mm 0.00 in0.0 mm
03:00 PM 83.4°F28.6°C 52.8°F11.6°C 35% 11.0 mph SW17.7 kmh SW 17.0 mph27.4 kmh 29.80 in1009.1 mb 0.00 in0.0 mm 0.00 in0.0 mm 0.00 in0.0 mm
03:05 PM 82.6°F28.1°C 53.6°F12.0°C 37% 3.0 mph SW4.8 kmh SW 15.0 mph24.1 kmh 29.80 in1009.1 mb 0.00 in0.0 mm 0.00 in0.0 mm 0.00 in0.0 mm
03:10 PM 82.3°F27.9°C 54.1°F12.3°C 38% 12.0 mph W19.3 kmh W 11.0 mph17.7 kmh 29.80 in1009.1 mb 0.00 in0.0 mm 0.00 in0.0 mm 0.00 in0.0 mm
03:15 PM 82.5°F28.1°C 53.5°F11.9°C 37% 9.0 mph WSW14.5 kmh WSW 15.0 mph24.1 kmh 29.80 in1009.1 mb 0.00 in0.0 mm 0.00 in0.0 mm 0.00 in0.0 mm
03:20 PM 82.1°F27.8°C 53.2°F11.8°C 37% 11.0 mph WSW17.7 kmh WSW 17.0 mph27.4 kmh 29.79 in1008.8 mb 0.00 in0.0 mm 0.00 in0.0 mm 0.00 in0.0 mm
03:25 PM 81.8°F27.7°C 53.6°F12.0°C 38% 7.0 mph SW11.3 kmh SW 15.0 mph24.1 kmh 29.80 in1009.1 mb 0.00 in0.0 mm 0.00 in0.0 mm 0.00 in0.0 mm
03:30 PM 81.6°F27.6°C 54.9°F12.7°C 40% 6.0 mph WSW9.7 kmh WSW 13.0 mph20.9 kmh 29.79 in1008.8 mb 0.00 in0.0 mm 0.00 in0.0 mm 0.00 in0.0 mm
03:35 PM 81.3°F27.4°C 55.3°F12.9°C 41% 5.0 mph WSW8.0 kmh WSW 13.0 mph20.9 kmh 29.80 in1009.1 mb 0.00 in0.0 mm 0.00 in0.0 mm 0.00 in0.0 mm
03:40 PM 80.9°F27.2°C 53.5°F11.9°C 39% 8.0 mph WSW12.9 kmh WSW 17.0 mph27.4 kmh 29.80 in1009.1 mb 0.00 in0.0 mm 0.00 in0.0 mm 0.00 in0.0 mm
03:45 PM 80.5°F26.9°C 53.9°F12.2°C 40% 7.0 mph WSW11.3 kmh WSW 12.0 mph19.3 kmh 29.79 in1008.8 mb 0.00 in0.0 mm 0.00 in0.0 mm 0.00 in0.0 mm
03:50 PM 80.1°F26.7°C 54.9°F12.7°C 42% 5.0 mph WSW8.0 kmh WSW 12.0 mph19.3 kmh 29.79 in1008.8 mb 0.00 in0.0 mm 0.00 in0.0 mm 0.00 in0.0 mm
03:55 PM 79.8°F26.6°C 53.9°F12.2°C 41% 3.0 mph WSW4.8 kmh WSW 10.0 mph16.1 kmh 29.79 in1008.8 mb 0.00 in0.0 mm 0.00 in0.0 mm 0.00 in0.0 mm
04:00 PM 79.8°F26.6°C 55.2°F12.9°C 43% 4.0 mph SW6.4 kmh SW 7.0 mph11.3 kmh 29.79 in1008.8 mb 0.00 in0.0 mm 0.00 in0.0 mm 0.00 in0.0 mm
04:05 PM 79.7°F26.5°C 54.5°F12.5°C 42% 7.0 mph SW11.3 kmh SW 14.0 mph22.5 kmh 29.79 in1008.8 mb 0.00 in0.0 mm 0.00 in0.0 mm 0.00 in0.0 mm
04:10 PM 79.4°F26.3°C 54.9°F12.7°C 43% 8.0 mph SW12.9 kmh SW 15.0 mph24.1 kmh 29.79 in1008.8 mb 0.00 in0.0 mm 0.00 in0.0 mm 0.00 in0.0 mm
04:15 PM 79.3°F26.3°C 54.8°F12.7°C 43% 11.0 mph SW17.7 kmh SW 15.0 mph24.1 kmh 29.79 in1008.8 mb 0.00 in0.0 mm 0.00 in0.0 mm 0.00 in0.0 mm
04:20 PM 79.2°F26.2°C 55.3°F12.9°C 44% 6.0 mph WSW9.7 kmh WSW 14.0 mph22.5 kmh 29.79 in1008.8 mb 0.00 in0.0 mm 0.00 in0.0 mm 0.00 in0.0 mm
04:25 PM 79.0°F26.1°C 55.2°F12.9°C 44% 6.0 mph WSW9.7 kmh WSW 14.0 mph22.5 kmh 29.80 in1009.1 mb 0.00 in0.0 mm 0.00 in0.0 mm 0.00 in0.0 mm
04:30 PM 78.9°F26.1°C 55.1°F12.8°C 44% 12.0 mph WSW19.3 kmh WSW 15.0 mph24.1 kmh 29.80 in1009.1 mb 0.00 in0.0 mm 0.00 in0.0 mm 0.00 in0.0 mm
04:35 PM 78.7°F25.9°C 54.9°F12.7°C 44% 6.0 mph SW9.7 kmh SW 16.0 mph25.7 kmh 29.80 in1009.1 mb 0.00 in0.0 mm 0.00 in0.0 mm 0.00 in0.0 mm
04:40 PM 78.5°F25.8°C 55.3°F12.9°C 45% 5.0 mph WSW8.0 kmh WSW 13.0 mph20.9 kmh 29.80 in1009.1 mb 0.00 in0.0 mm 0.00 in0.0 mm 0.00 in0.0 mm
04:45 PM 78.1°F25.6°C 55.6°F13.1°C 46% 5.0 mph W8.0 kmh W 12.0 mph19.3 kmh 29.80 in1009.1 mb 0.00 in0.0 mm 0.00 in0.0 mm 0.00 in0.0 mm
04:50 PM 77.9°F25.5°C 56.0°F13.3°C 47% 6.0 mph WSW9.7 kmh WSW 12.0 mph19.3 kmh 29.80 in1009.1 mb 0.00 in0.0 mm 0.00 in0.0 mm 0.00 in0.0 mm
04:55 PM 77.6°F25.3°C 55.7°F13.2°C 47% 8.0 mph WSW12.9 kmh WSW 11.0 mph17.7 kmh 29.80 in1009.1 mb 0.00 in0.0 mm 0.00 in0.0 mm 0.00 in0.0 mm
05:00 PM 77.3°F25.2°C 56.0°F13.3°C 48% 3.0 mph WSW4.8 kmh WSW 9.0 mph14.5 kmh 29.80 in1009.1 mb 0.00 in0.0 mm 0.00 in0.0 mm 0.00 in0.0 mm
05:05 PM 77.1°F25.1°C 56.4°F13.6°C 49% 4.0 mph SW6.4 kmh SW 7.0 mph11.3 kmh 29.80 in1009.1 mb 0.00 in0.0 mm 0.00 in0.0 mm 0.00 in0.0 mm
05:10 PM 76.9°F24.9°C 56.2°F13.4°C 49% 6.0 mph WSW9.7 kmh WSW 8.0 mph12.9 kmh 29.80 in1009.1 mb 0.00 in0.0 mm 0.00 in0.0 mm 0.00 in0.0 mm
05:15 PM 76.7°F24.8°C 56.0°F13.3°C 49% 4.0 mph W6.4 kmh W 11.0 mph17.7 kmh 29.80 in1009.1 mb 0.00 in0.0 mm 0.00 in0.0 mm 0.00 in0.0 mm
05:20 PM 76.6°F24.8°C 55.9°F13.3°C 49% 9.0 mph SW14.5 kmh SW 12.0 mph19.3 kmh 29.80 in1009.1 mb 0.00 in0.0 mm 0.00 in0.0 mm 0.00 in0.0 mm
05:25 PM 76.5°F24.7°C 55.8°F13.2°C 49% 7.0 mph SW11.3 kmh SW 11.0 mph17.7 kmh 29.80 in1009.1 mb 0.00 in0.0 mm 0.00 in0.0 mm 0.00 in0.0 mm
05:30 PM 76.5°F24.7°C 55.8°F13.2°C 49% 3.0 mph SW4.8 kmh SW 15.0 mph24.1 kmh 29.80 in1009.1 mb 0.00 in0.0 mm 0.00 in0.0 mm 0.00 in0.0 mm
05:35 PM 76.5°F24.7°C 56.4°F13.6°C 50% 8.0 mph SW12.9 kmh SW 14.0 mph22.5 kmh 29.80 in1009.1 mb 0.00 in0.0 mm 0.00 in0.0 mm 0.00 in0.0 mm
05:40 PM 76.3°F24.6°C 56.2°F13.4°C 50% 6.0 mph WSW9.7 kmh WSW 12.0 mph19.3 kmh 29.81 in1009.5 mb 0.00 in0.0 mm 0.00 in0.0 mm 0.00 in0.0 mm
05:45 PM 76.0°F24.4°C 56.5°F13.6°C 51% 5.0 mph SW8.0 kmh SW 9.0 mph14.5 kmh 29.81 in1009.5 mb 0.00 in0.0 mm 0.00 in0.0 mm 0.00 in0.0 mm
05:50 PM 75.8°F24.3°C 56.8°F13.8°C 52% 4.0 mph WSW6.4 kmh WSW 10.0 mph16.1 kmh 29.81 in1009.5 mb 0.00 in0.0 mm 0.00 in0.0 mm 0.00 in0.0 mm
05:55 PM 75.6°F24.2°C 57.2°F14.0°C 53% 5.0 mph WSW8.0 kmh WSW 7.0 mph11.3 kmh 29.82 in1009.8 mb 0.00 in0.0 mm 0.00 in0.0 mm 0.00 in0.0 mm
06:00 PM 75.3°F24.1°C 56.9°F13.8°C 53% 10.0 mph W16.1 kmh W 15.0 mph24.1 kmh 29.82 in1009.8 mb 0.00 in0.0 mm 0.00 in0.0 mm 0.00 in0.0 mm
06:05 PM 75.1°F23.9°C 56.7°F13.7°C 53% 7.0 mph NW11.3 kmh NW 17.0 mph27.4 kmh 29.82 in1009.8 mb 0.00 in0.0 mm 0.00 in0.0 mm 0.00 in0.0 mm
06:10 PM 75.0°F23.9°C 57.2°F14.0°C 54% 5.0 mph W8.0 kmh W 14.0 mph22.5 kmh 29.82 in1009.8 mb 0.00 in0.0 mm 0.00 in0.0 mm 0.00 in0.0 mm
06:15 PM 74.9°F23.8°C 57.6°F14.2°C 55% 7.0 mph W11.3 kmh W 13.0 mph20.9 kmh 29.83 in1010.2 mb 0.00 in0.0 mm 0.00 in0.0 mm 0.00 in0.0 mm
06:20 PM 74.7°F23.7°C 57.4°F14.1°C 55% 11.0 mph W17.7 kmh W 15.0 mph24.1 kmh 29.83 in1010.2 mb 0.00 in0.0 mm 0.00 in0.0 mm 0.00 in0.0 mm
06:25 PM 74.6°F23.7°C 57.8°F14.3°C 56% 13.0 mph WSW20.9 kmh WSW 15.0 mph24.1 kmh 29.83 in1010.2 mb 0.00 in0.0 mm 0.00 in0.0 mm 0.00 in0.0 mm
06:30 PM 74.3°F23.5°C 57.0°F13.9°C 55% 15.0 mph WSW24.1 kmh WSW 20.0 mph32.2 kmh 29.84 in1010.5 mb 0.00 in0.0 mm 0.00 in0.0 mm 0.00 in0.0 mm
06:35 PM 74.3°F23.5°C 57.5°F14.2°C 56% 15.0 mph WSW24.1 kmh WSW 17.0 mph27.4 kmh 29.85 in1010.8 mb 0.00 in0.0 mm 0.00 in0.0 mm 0.00 in0.0 mm
06:40 PM 74.0°F23.3°C 57.7°F14.3°C 57% 22.0 mph WNW35.4 kmh WNW 23.0 mph37.0 kmh 29.85 in1010.8 mb 0.00 in0.0 mm 0.00 in0.0 mm 0.00 in0.0 mm
06:45 PM 73.8°F23.2°C 57.5°F14.2°C 57% 14.0 mph WSW22.5 kmh WSW 21.0 mph33.8 kmh 29.85 in1010.8 mb 0.00 in0.0 mm 0.00 in0.0 mm 0.00 in0.0 mm
06:50 PM 73.4°F23.0°C 57.2°F14.0°C 57% 16.0 mph WNW25.7 kmh WNW 30.0 mph48.3 kmh 29.86 in1011.2 mb 0.00 in0.0 mm 0.00 in0.0 mm 0.00 in0.0 mm
06:55 PM 73.2°F22.9°C 56.5°F13.6°C 56% 13.0 mph WSW20.9 kmh WSW 26.0 mph41.8 kmh 29.86 in1011.2 mb 0.00 in0.0 mm 0.00 in0.0 mm 0.00 in0.0 mm
07:00 PM 73.0°F22.8°C 56.3°F13.5°C 56% 12.0 mph W19.3 kmh W 24.0 mph38.6 kmh 29.86 in1011.2 mb 0.00 in0.0 mm 0.00 in0.0 mm 0.00 in0.0 mm
07:05 PM 72.8°F22.7°C 56.6°F13.7°C 57% 17.0 mph WSW27.4 kmh WSW 18.0 mph29.0 kmh 29.85 in1010.8 mb 0.00 in0.0 mm 0.00 in0.0 mm 0.00 in0.0 mm
07:10 PM 72.4°F22.4°C 56.7°F13.7°C 58% 10.0 mph WSW16.1 kmh WSW 20.0 mph32.2 kmh 29.86 in1011.2 mb 0.00 in0.0 mm 0.00 in0.0 mm 0.00 in0.0 mm
07:15 PM 72.0°F22.2°C 56.3°F13.5°C 58% 7.0 mph SW11.3 kmh SW 22.0 mph35.4 kmh 29.86 in1011.2 mb 0.00 in0.0 mm 0.00 in0.0 mm 0.00 in0.0 mm
07:20 PM 71.7°F22.1°C 56.5°F13.6°C 59% 11.0 mph WSW17.7 kmh WSW 26.0 mph41.8 kmh 29.86 in1011.2 mb 0.00 in0.0 mm 0.00 in0.0 mm 0.00 in0.0 mm
07:25 PM 71.3°F21.8°C 57.1°F13.9°C 61% 9.0 mph SW14.5 kmh SW 20.0 mph32.2 kmh 29.87 in1011.5 mb 0.00 in0.0 mm 0.00 in0.0 mm 0.00 in0.0 mm
07:30 PM 70.9°F21.6°C 57.6°F14.2°C 63% 10.0 mph WSW16.1 kmh WSW 20.0 mph32.2 kmh 29.87 in1011.5 mb 0.00 in0.0 mm 0.00 in0.0 mm 0.00 in0.0 mm
07:35 PM 70.3°F21.3°C 57.0°F13.9°C 63% 11.0 mph WSW17.7 kmh WSW 21.0 mph33.8 kmh 29.88 in1011.9 mb 0.00 in0.0 mm 0.00 in0.0 mm 0.00 in0.0 mm
07:40 PM 70.2°F21.2°C 57.0°F13.9°C 63% 5.0 mph SW8.0 kmh SW 16.0 mph25.7 kmh 29.88 in1011.9 mb 0.00 in0.0 mm 0.00 in0.0 mm 0.00 in0.0 mm
07:45 PM 70.1°F21.2°C 56.4°F13.6°C 62% 12.0 mph SW19.3 kmh SW 15.0 mph24.1 kmh 29.88 in1011.9 mb 0.00 in0.0 mm 0.00 in0.0 mm 0.00 in0.0 mm
07:50 PM 70.2°F21.2°C 57.0°F13.9°C 63% 6.0 mph WSW9.7 kmh WSW 16.0 mph25.7 kmh 29.88 in1011.9 mb 0.00 in0.0 mm 0.00 in0.0 mm 0.00 in0.0 mm
07:55 PM 69.9°F21.1°C 57.1°F13.9°C 64% 9.0 mph WNW14.5 kmh WNW 16.0 mph25.7 kmh 29.89 in1012.2 mb 0.00 in0.0 mm 0.00 in0.0 mm 0.00 in0.0 mm
08:00 PM 69.5°F20.8°C 57.2°F14.0°C 65% 11.0 mph WSW17.7 kmh WSW 12.0 mph19.3 kmh 29.89 in1012.2 mb 0.00 in0.0 mm 0.00 in0.0 mm 0.00 in0.0 mm
08:05 PM 69.3°F20.7°C 57.0°F13.9°C 65% 6.0 mph W9.7 kmh W 13.0 mph20.9 kmh 29.89 in1012.2 mb 0.00 in0.0 mm 0.00 in0.0 mm 0.00 in0.0 mm
08:10 PM 68.9°F20.5°C 57.4°F14.1°C 67% 9.0 mph NW14.5 kmh NW 20.0 mph32.2 kmh 29.91 in1012.9 mb 0.00 in0.0 mm 0.00 in0.0 mm 0.00 in0.0 mm
08:15 PM 67.0°F19.4°C 56.4°F13.6°C 69% 19.0 mph WNW30.6 kmh WNW 21.0 mph33.8 kmh 29.91 in1012.9 mb 0.00 in0.0 mm 0.00 in0.0 mm 0.00 in0.0 mm
08:20 PM 65.4°F18.6°C 56.1°F13.4°C 72% 5.0 mph NW8.0 kmh NW 22.0 mph35.4 kmh 29.92 in1013.2 mb 0.00 in0.0 mm 0.00 in0.0 mm 0.00 in0.0 mm
08:25 PM 64.4°F18.0°C 56.2°F13.4°C 75% 12.0 mph W19.3 kmh W 15.0 mph24.1 kmh 29.94 in1013.9 mb 0.00 in0.0 mm 0.00 in0.0 mm 0.00 in0.0 mm
08:30 PM 63.6°F17.6°C 55.8°F13.2°C 76% 13.0 mph WSW20.9 kmh WSW 21.0 mph33.8 kmh 29.94 in1013.9 mb 0.00 in0.0 mm 0.00 in0.0 mm 0.00 in0.0 mm
08:35 PM 62.8°F17.1°C 55.1°F12.8°C 76% 11.0 mph NW17.7 kmh NW 19.0 mph30.6 kmh 29.96 in1014.6 mb 0.00 in0.0 mm 0.00 in0.0 mm 0.00 in0.0 mm
08:40 PM 62.1°F16.7°C 55.1°F12.8°C 78% 12.0 mph NW19.3 kmh NW 17.0 mph27.4 kmh 29.97 in1014.9 mb 0.00 in0.0 mm 0.00 in0.0 mm 0.00 in0.0 mm
08:45 PM 61.4°F16.3°C 54.4°F12.4°C 78% 10.0 mph W16.1 kmh W 20.0 mph32.2 kmh 29.97 in1014.9 mb 0.00 in0.0 mm 0.00 in0.0 mm 0.00 in0.0 mm
08:50 PM 60.6°F15.9°C 54.0°F12.2°C 79% 16.0 mph W25.7 kmh W 18.0 mph29.0 kmh 29.98 in1015.2 mb 0.00 in0.0 mm 0.00 in0.0 mm 0.00 in0.0 mm
08:55 PM 59.7°F15.4°C 53.5°F11.9°C 80% 11.0 mph WNW17.7 kmh WNW 20.0 mph32.2 kmh 29.99 in1015.6 mb 0.00 in0.0 mm 0.00 in0.0 mm 0.00 in0.0 mm
09:00 PM 58.6°F14.8°C 51.7°F10.9°C 78% 9.0 mph WNW14.5 kmh WNW 22.0 mph35.4 kmh 29.99 in1015.6 mb 0.00 in0.0 mm 0.00 in0.0 mm 0.00 in0.0 mm
09:05 PM 57.9°F14.4°C 51.7°F10.9°C 80% 9.0 mph WNW14.5 kmh WNW 20.0 mph32.2 kmh 29.98 in1015.2 mb 0.00 in0.0 mm 0.00 in0.0 mm 0.00 in0.0 mm
09:10 PM 57.5°F14.2°C 52.0°F11.1°C 82% 7.0 mph NW11.3 kmh NW 14.0 mph22.5 kmh 29.99 in1015.6 mb 0.00 in0.0 mm 0.00 in0.0 mm 0.00 in0.0 mm
09:15 PM 57.2°F14.0°C 52.0°F11.1°C 83% 5.0 mph WSW8.0 kmh WSW 14.0 mph22.5 kmh 30.00 in1015.9 mb 0.00 in0.0 mm 0.00 in0.0 mm 0.00 in0.0 mm
09:20 PM 57.0°F13.9°C 51.8°F11.0°C 83% 11.0 mph W17.7 kmh W 15.0 mph24.1 kmh 30.00 in1015.9 mb 0.00 in0.0 mm 0.00 in0.0 mm 0.00 in0.0 mm
09:25 PM 56.7°F13.7°C 51.5°F10.8°C 83% 8.0 mph W12.9 kmh W 13.0 mph20.9 kmh 30.00 in1015.9 mb 0.00 in0.0 mm 0.00 in0.0 mm 0.00 in0.0 mm
09:30 PM 56.3°F13.5°C 50.8°F10.4°C 82% 6.0 mph W9.7 kmh W 13.0 mph20.9 kmh 30.00 in1015.9 mb 0.01 in0.3 mm 0.12 in3.0 mm 0.01 in0.3 mm
09:35 PM 56.0°F13.3°C 50.5°F10.3°C 82% 3.0 mph NW4.8 kmh NW 16.0 mph25.7 kmh 30.00 in1015.9 mb 0.01 in0.3 mm 0.00 in0.0 mm 0.01 in0.3 mm
09:40 PM 55.8°F13.2°C 50.3°F10.2°C 82% 11.0 mph WNW17.7 kmh WNW 17.0 mph27.4 kmh 30.00 in1015.9 mb 0.01 in0.3 mm 0.00 in0.0 mm 0.01 in0.3 mm
09:45 PM 55.6°F13.1°C 50.5°F10.3°C 83% 10.0 mph W16.1 kmh W 18.0 mph29.0 kmh 30.01 in1016.3 mb 0.01 in0.3 mm 0.00 in0.0 mm 0.01 in0.3 mm
09:50 PM 55.5°F13.1°C 50.0°F10.0°C 82% 12.0 mph W19.3 kmh W 16.0 mph25.7 kmh 30.02 in1016.6 mb 0.01 in0.3 mm 0.00 in0.0 mm 0.01 in0.3 mm
09:55 PM 55.4°F13.0°C 50.3°F10.2°C 83% 5.0 mph WSW8.0 kmh WSW 15.0 mph24.1 kmh 30.02 in1016.6 mb 0.01 in0.3 mm 0.00 in0.0 mm 0.01 in0.3 mm
10:00 PM 55.1°F12.8°C 50.3°F10.2°C 84% 6.0 mph NW9.7 kmh NW 12.0 mph19.3 kmh 30.02 in1016.6 mb 0.02 in0.5 mm 0.01 in0.3 mm 0.02 in0.5 mm
10:05 PM 54.9°F12.7°C 50.4°F10.2°C 85% 4.0 mph WSW6.4 kmh WSW 14.0 mph22.5 kmh 30.02 in1016.6 mb 0.02 in0.5 mm 0.00 in0.0 mm 0.02 in0.5 mm
10:10 PM 54.6°F12.6°C 50.1°F10.1°C 85% 12.0 mph W19.3 kmh W 14.0 mph22.5 kmh 30.03 in1016.9 mb 0.02 in0.5 mm 0.00 in0.0 mm 0.02 in0.5 mm
10:15 PM 54.5°F12.5°C 50.3°F10.2°C 86% 11.0 mph WSW17.7 kmh WSW 13.0 mph20.9 kmh 30.03 in1016.9 mb 0.02 in0.5 mm 0.00 in0.0 mm 0.02 in0.5 mm
10:20 PM 54.4°F12.4°C 50.6°F10.3°C 87% 9.0 mph W14.5 kmh W 11.0 mph17.7 kmh 30.04 in1017.3 mb 0.03 in0.8 mm 0.12 in3.0 mm 0.03 in0.8 mm
10:25 PM 54.3°F12.4°C 50.8°F10.4°C 88% 3.0 mph WSW4.8 kmh WSW 10.0 mph16.1 kmh 30.04 in1017.3 mb 0.03 in0.8 mm 0.00 in0.0 mm 0.03 in0.8 mm
10:30 PM 54.2°F12.3°C 50.4°F10.2°C 87% 3.0 mph WSW4.8 kmh WSW 13.0 mph20.9 kmh 30.03 in1016.9 mb 0.02 in0.5 mm 0.00 in0.0 mm 0.03 in0.8 mm
10:35 PM 54.1°F12.3°C 50.6°F10.3°C 88% 5.0 mph WSW8.0 kmh WSW 9.0 mph14.5 kmh 30.04 in1017.3 mb 0.02 in0.5 mm 0.00 in0.0 mm 0.03 in0.8 mm
10:40 PM 54.1°F12.3°C 50.6°F10.3°C 88% 5.0 mph WSW8.0 kmh WSW 12.0 mph19.3 kmh 30.05 in1017.6 mb 0.02 in0.5 mm 0.00 in0.0 mm 0.03 in0.8 mm
10:45 PM 54.0°F12.2°C 50.8°F10.4°C 89% 4.0 mph WSW6.4 kmh WSW 10.0 mph16.1 kmh 30.05 in1017.6 mb 0.02 in0.5 mm 0.00 in0.0 mm 0.03 in0.8 mm
10:50 PM 54.0°F12.2°C 50.8°F10.4°C 89% 4.0 mph WSW6.4 kmh WSW 9.0 mph14.5 kmh 30.05 in1017.6 mb 0.03 in0.8 mm 0.12 in3.0 mm 0.04 in1.0 mm
10:55 PM 54.1°F12.3°C 50.9°F10.5°C 89% 4.0 mph WSW6.4 kmh WSW 9.0 mph14.5 kmh 30.06 in1017.9 mb 0.03 in0.8 mm 0.00 in0.0 mm 0.04 in1.0 mm
11:00 PM 54.2°F12.3°C 51.0°F10.6°C 89% 6.0 mph SW9.7 kmh SW 8.0 mph12.9 kmh 30.06 in1017.9 mb 0.02 in0.5 mm 0.00 in0.0 mm 0.04 in1.0 mm
11:05 PM 54.2°F12.3°C 51.0°F10.6°C 89% 7.0 mph W11.3 kmh W 12.0 mph19.3 kmh 30.06 in1017.9 mb 0.02 in0.5 mm 0.00 in0.0 mm 0.04 in1.0 mm
11:10 PM 54.2°F12.3°C 50.7°F10.4°C 88% 5.0 mph WSW8.0 kmh WSW 11.0 mph17.7 kmh 30.07 in1018.3 mb 0.02 in0.5 mm 0.00 in0.0 mm 0.04 in1.0 mm
11:15 PM 54.3°F12.4°C 50.8°F10.4°C 88% 7.0 mph WSW11.3 kmh WSW 10.0 mph16.1 kmh 30.07 in1018.3 mb 0.02 in0.5 mm 0.00 in0.0 mm 0.04 in1.0 mm
11:20 PM 54.3°F12.4°C 50.8°F10.4°C 88% 6.0 mph S9.7 kmh S 10.0 mph16.1 kmh 30.07 in1018.3 mb 0.01 in0.3 mm 0.00 in0.0 mm 0.04 in1.0 mm
11:25 PM 54.2°F12.3°C 50.4°F10.2°C 87% 7.0 mph WSW11.3 kmh WSW 10.0 mph16.1 kmh 30.07 in1018.3 mb 0.01 in0.3 mm 0.00 in0.0 mm 0.04 in1.0 mm
11:30 PM 54.2°F12.3°C 50.4°F10.2°C 87% 9.0 mph W14.5 kmh W 9.0 mph14.5 kmh 30.08 in1018.6 mb 0.01 in0.3 mm 0.00 in0.0 mm 0.04 in1.0 mm
11:35 PM 54.3°F12.4°C 50.5°F10.3°C 87% 3.0 mph WSW4.8 kmh WSW 9.0 mph14.5 kmh 30.08 in1018.6 mb 0.01 in0.3 mm 0.00 in0.0 mm 0.04 in1.0 mm
11:40 PM 54.4°F12.4°C 50.6°F10.3°C 87% 1.0 mph SW1.6 kmh SW 7.0 mph11.3 kmh 30.08 in1018.6 mb 0.01 in0.3 mm 0.00 in0.0 mm 0.04 in1.0 mm
11:45 PM 54.3°F12.4°C 50.8°F10.4°C 88% 2.0 mph SW3.2 kmh SW 5.0 mph8.0 kmh 30.08 in1018.6 mb 0.01 in0.3 mm 0.00 in0.0 mm 0.04 in1.0 mm
11:50 PM 54.4°F12.4°C 50.9°F10.5°C 88% 3.0 mph WSW4.8 kmh WSW 6.0 mph9.7 kmh 30.09 in1019.0 mb 0.00 in0.0 mm 0.00 in0.0 mm 0.04 in1.0 mm
11:55 PM 54.4°F12.4°C 50.9°F10.5°C 88% 6.0 mph SSW9.7 kmh SSW 7.0 mph11.3 kmh 30.10 in1019.3 mb 0.00 in0.0 mm 0.00 in0.0 mm 0.04 in1.0 mm